Alta, Indiana
Current Conditions -  °F | °C
As of 10:35 AM on Friday 19 Dec 2014 (Local Time) from KPRG Reporting Station
Clear Clear  
Wind Chill: -3°   Ceiling: Unl
Heat Index: -3°   Visibility: 7mi
Dew Point: -5°   Wind: 0mph
Humidity: 83%   Direction: NA
Pressure: 30.35"   Gusts: NA
Location:  39.7643°N, 87.4119°W
Report Text: KPRG 191535Z AUTO 00000KT 7SM CLR M03/M05 A3035 RMK AO2 T10261051
Loading
Personal Weather Stations






























Interactive Weather Map New forecast layout! Learn more

10-Day Weather Forecast

Advertisements
Track Severe Weather on mobile